Time;durP1;ratioP1;P1;durP2;ratioP2;P2;SDS_P1;SDS_P2;PMS_P1;PMS_P2;Temp;Humidity;BMP_temperature;BMP_pressure;BME280_temperature;BME280_humidity;BME280_pressure;Samples;Min_cycle;Max_cycle;Signal;HPM_P1;HPM_P2
2021/08/25 00:01:07;;;;;;;3.15;2.67;;;23.90;58.00;;;;;;5051498;28;20049;-48
2021/08/25 00:03:33;;;;;;;3.15;2.85;;;23.90;58.10;;;;;;5048995;28;20374;-49
2021/08/25 00:05:59;;;;;;;3.35;2.97;;;23.90;58.00;;;;;;5051302;28;20033;-49
2021/08/25 00:08:24;;;;;;;3.92;2.95;;;23.90;58.00;;;;;;5051045;28;20100;-48
2021/08/25 00:10:50;;;;;;;3.10;2.70;;;23.80;58.20;;;;;;5050170;28;20129;-47
2021/08/25 00:13:18;;;;;;;2.88;2.67;;;23.90;57.90;;;;;;5050241;28;20032;-47
2021/08/25 00:15:44;;;;;;;3.38;3.03;;;23.80;58.00;;;;;;5050379;28;20358;-47
2021/08/25 00:18:10;;;;;;;4.55;3.22;;;23.80;57.80;;;;;;5050857;28;20033;-48
2021/08/25 00:20:36;;;;;;;3.83;3.25;;;23.90;57.90;;;;;;5067147;28;20043;-47
2021/08/25 00:23:03;;;;;;;3.20;2.80;;;23.80;57.80;;;;;;5071130;28;20025;-48
2021/08/25 00:25:30;;;;;;;3.00;2.63;;;23.80;57.90;;;;;;5073440;28;20028;-54
2021/08/25 00:27:56;;;;;;;3.78;3.22;;;23.80;58.00;;;;;;5074416;28;20020;-48
2021/08/25 00:30:22;;;;;;;3.63;3.00;;;23.80;57.70;;;;;;5074800;28;20382;-47
2021/08/25 00:32:48;;;;;;;3.65;2.83;;;23.80;57.80;;;;;;5073527;28;20078;-48
2021/08/25 00:35:14;;;;;;;3.63;2.85;;;23.80;57.80;;;;;;5074518;28;20031;-48
2021/08/25 00:37:40;;;;;;;4.75;2.97;;;23.80;57.70;;;;;;5073788;28;20387;-47
2021/08/25 00:40:06;;;;;;;4.53;3.15;;;23.80;57.70;;;;;;5074347;28;20032;-48
2021/08/25 00:42:32;;;;;;;4.10;3.08;;;23.80;57.70;;;;;;5073903;28;20029;-54
2021/08/25 00:45:02;;;;;;;3.92;2.95;;;23.80;57.80;;;;;;5074245;28;20127;-47
2021/08/25 00:47:42;;;;;;;3.70;3.30;;;23.80;57.80;;;;;;5074488;28;20028;-47
2021/08/25 00:50:09;;;;;;;3.97;2.67;;;23.80;57.80;;;;;;5074087;28;20044;-48
2021/08/25 00:52:38;;;;;;;5.50;2.85;;;23.80;57.80;;;;;;5073242;28;20040;-47
2021/08/25 00:55:04;;;;;;;3.95;2.97;;;23.80;57.70;;;;;;5074223;28;20036;-47
2021/08/25 00:57:30;;;;;;;3.53;2.83;;;23.80;57.70;;;;;;5073879;28;20039;-54
2021/08/25 00:59:55;;;;;;;4.63;2.80;;;23.80;57.80;;;;;;5072837;28;20116;-50
2021/08/25 01:02:37;;;;;;;3.75;2.83;;;23.80;57.70;;;;;;5074033;28;20047;-48
2021/08/25 01:05:05;;;;;;;3.28;2.97;;;23.80;57.70;;;;;;5073665;28;20036;-48
2021/08/25 01:07:32;;;;;;;3.53;3.03;;;23.80;57.80;;;;;;5073518;28;20063;-54
2021/08/25 01:09:58;;;;;;;3.38;3.08;;;23.80;57.70;;;;;;5064106;28;20475;-48
2021/08/25 01:12:27;;;;;;;3.53;3.22;;;23.80;57.70;;;;;;5053818;28;20050;-48
2021/08/25 01:14:53;;;;;;;3.50;2.85;;;23.80;57.70;;;;;;5051297;28;20021;-48
2021/08/25 01:17:25;;;;;;;4.65;3.05;;;23.80;57.60;;;;;;5071247;28;20056;-47
2021/08/25 01:20:19;;;;;;;3.10;2.80;;;23.80;57.80;;;;;;5072376;28;20024;-48
2021/08/25 01:22:45;;;;;;;3.25;2.75;;;23.80;57.70;;;;;;5071756;28;20099;-48
2021/08/25 01:25:12;;;;;;;4.93;3.08;;;23.80;57.70;;;;;;5073346;28;20501;-48
2021/08/25 01:27:40;;;;;;;3.63;2.63;;;23.80;57.70;;;;;;5072866;28;20023;-47
2021/08/25 01:30:07;;;;;;;3.72;2.80;;;23.80;57.60;;;;;;5073089;28;20035;-49
2021/08/25 01:32:35;;;;;;;3.45;3.00;;;23.80;57.70;;;;;;5072712;28;20470;-54
2021/08/25 01:35:00;;;;;;;3.38;2.90;;;23.80;57.60;;;;;;5073244;28;20029;-47
2021/08/25 01:37:29;;;;;;;4.63;2.88;;;23.80;57.60;;;;;;5073009;28;20032;-48
2021/08/25 01:39:59;;;;;;;3.42;3.13;;;23.80;57.60;;;;;;5072402;28;20860;-48
2021/08/25 01:42:25;;;;;;;4.20;2.90;;;23.80;57.60;;;;;;5073390;28;20048;-47
2021/08/25 01:44:51;;;;;;;3.53;2.72;;;23.80;57.60;;;;;;5072495;28;20843;-47
2021/08/25 01:47:18;;;;;;;5.32;3.05;;;23.80;57.60;;;;;;5073162;28;20370;-48
2021/08/25 01:49:44;;;;;;;5.65;3.30;;;23.80;57.60;;;;;;5071805;28;20481;-48
2021/08/25 01:52:14;;;;;;;3.47;3.00;;;23.80;57.60;;;;;;5072281;28;20367;-48
2021/08/25 01:54:40;;;;;;;4.13;2.92;;;23.80;57.60;;;;;;5072014;28;20029;-48
2021/08/25 01:57:06;;;;;;;4.85;3.13;;;23.80;57.60;;;;;;5073232;28;20029;-47
2021/08/25 01:59:32;;;;;;;4.25;2.88;;;23.80;57.50;;;;;;5073052;28;20054;-54
2021/08/25 02:01:58;;;;;;;3.20;2.88;;;23.80;57.70;;;;;;5072287;28;20083;-48
2021/08/25 02:04:23;;;;;;;3.05;2.70;;;23.80;57.50;;;;;;5072944;28;20020;-47
2021/08/25 02:06:49;;;;;;;4.25;3.30;;;23.80;57.50;;;;;;5071812;28;20024;-47
2021/08/25 02:09:16;;;;;;;3.50;2.80;;;23.80;57.60;;;;;;5069151;28;20425;-49
2021/08/25 02:11:42;;;;;;;2.70;2.45;;;23.80;57.50;;;;;;5051846;28;20355;-49
2021/08/25 02:14:08;;;;;;;4.05;2.90;;;23.80;57.50;;;;;;5051527;28;20048;-50
2021/08/25 02:16:34;;;;;;;2.83;2.53;;;23.80;57.60;;;;;;5051994;28;20421;-54
2021/08/25 02:19:00;;;;;;;3.83;2.95;;;23.80;57.60;;;;;;5055320;28;20032;-48
2021/08/25 02:21:26;;;;;;;3.72;2.88;;;23.80;57.50;;;;;;5072126;28;20037;-48
2021/08/25 02:23:51;;;;;;;3.88;3.10;;;23.80;57.50;;;;;;5071344;28;20028;-51
2021/08/25 02:26:17;;;;;;;3.30;2.95;;;23.80;57.50;;;;;;5072220;28;20032;-48
2021/08/25 02:28:47;;;;;;;3.85;2.88;;;23.80;57.50;;;;;;5071167;28;20029;-49
2021/08/25 02:31:13;;;;;;;3.03;2.72;;;23.80;57.60;;;;;;5072370;28;20031;-47
2021/08/25 02:33:40;;;;;;;4.70;3.00;;;23.80;57.50;;;;;;5071768;28;20024;-48
2021/08/25 02:36:07;;;;;;;3.88;2.83;;;23.80;57.50;;;;;;5072142;28;20035;-47
2021/08/25 02:38:34;;;;;;;3.47;2.78;;;23.80;57.50;;;;;;5072126;28;20022;-49
2021/08/25 02:41:00;;;;;;;3.65;2.65;;;23.80;57.50;;;;;;5070376;28;20119;-48
2021/08/25 02:43:26;;;;;;;3.22;2.85;;;23.80;57.40;;;;;;5072249;28;20102;-48
2021/08/25 02:45:52;;;;;;;4.03;3.17;;;23.80;57.40;;;;;;5071457;28;20070;-47
2021/08/25 02:48:18;;;;;;;3.78;2.83;;;23.80;57.50;;;;;;5071570;28;20024;-47
2021/08/25 02:50:43;;;;;;;2.90;2.55;;;23.80;57.40;;;;;;5071052;28;20099;-48
2021/08/25 02:53:09;;;;;;;2.92;2.58;;;23.80;57.50;;;;;;5071828;28;20028;-47
2021/08/25 02:55:35;;;;;;;3.13;2.78;;;23.80;57.50;;;;;;5071829;28;20099;-54
2021/08/25 02:58:00;;;;;;;4.00;3.28;;;23.80;57.50;;;;;;5071557;28;20058;-47
2021/08/25 03:00:26;;;;;;;3.88;2.65;;;23.80;57.50;;;;;;5071873;28;20557;-47
2021/08/25 03:02:52;;;;;;;3.22;2.88;;;23.80;57.40;;;;;;5070807;28;20474;-49
2021/08/25 03:05:18;;;;;;;3.70;2.38;;;23.80;57.40;;;;;;5072091;28;20029;-47
2021/08/25 03:07:43;;;;;;;3.45;2.70;;;23.80;57.50;;;;;;5062853;28;20505;-48
2021/08/25 03:10:10;;;;;;;3.35;2.85;;;23.70;57.40;;;;;;5057939;28;20104;-48
2021/08/25 03:12:36;;;;;;;2.85;2.55;;;23.80;57.50;;;;;;5070768;28;20027;-54
2021/08/25 03:15:07;;;;;;;3.45;2.72;;;23.80;57.50;;;;;;5071656;28;20025;-48
2021/08/25 03:17:33;;;;;;;3.30;3.00;;;23.70;57.40;;;;;;5071238;28;20048;-48
2021/08/25 03:19:58;;;;;;;3.42;2.72;;;23.70;57.40;;;;;;5070789;28;20059;-48
2021/08/25 03:22:24;;;;;;;4.93;2.88;;;23.70;57.50;;;;;;5071426;28;20474;-47
2021/08/25 03:24:50;;;;;;;3.97;2.80;;;23.70;57.40;;;;;;5070129;28;20036;-48
2021/08/25 03:27:16;;;;;;;3.70;2.53;;;23.70;57.50;;;;;;5070736;28;20032;-49
2021/08/25 03:29:41;;;;;;;4.22;3.03;;;23.70;57.40;;;;;;5070982;28;20373;-47
2021/08/25 03:32:07;;;;;;;3.92;3.15;;;23.70;57.50;;;;;;5070993;28;20390;-47
2021/08/25 03:34:33;;;;;;;3.00;2.70;;;23.70;57.40;;;;;;5071554;28;20024;-48
2021/08/25 03:36:59;;;;;;;3.22;2.63;;;23.70;57.40;;;;;;5069776;28;20070;-49
2021/08/25 03:39:25;;;;;;;2.83;2.60;;;23.70;57.40;;;;;;5071234;28;20078;-47
2021/08/25 03:41:50;;;;;;;3.88;2.83;;;23.70;57.40;;;;;;5070056;28;20036;-47
2021/08/25 03:44:16;;;;;;;4.68;2.90;;;23.70;57.40;;;;;;5070786;28;20029;-48
2021/08/25 03:46:41;;;;;;;3.92;2.95;;;23.80;57.50;;;;;;5070501;28;20032;-47
2021/08/25 03:49:07;;;;;;;3.10;2.70;;;23.70;57.40;;;;;;5071418;28;20028;-48
2021/08/25 03:51:33;;;;;;;3.50;2.90;;;23.70;57.40;;;;;;5071489;28;20035;-47
2021/08/25 03:53:58;;;;;;;3.50;2.70;;;23.70;57.40;;;;;;5070242;28;20021;-47
2021/08/25 03:56:24;;;;;;;3.00;2.65;;;23.70;57.40;;;;;;5071256;28;20073;-48
2021/08/25 03:58:49;;;;;;;4.20;2.42;;;23.70;57.40;;;;;;5070276;28;20085;-48
2021/08/25 04:01:15;;;;;;;3.97;2.60;;;23.70;57.40;;;;;;5075167;28;20040;-47
2021/08/25 04:03:41;;;;;;;3.03;2.58;;;23.70;57.40;;;;;;5074046;28;20427;-48
2021/08/25 04:06:06;;;;;;;2.75;2.47;;;23.70;57.40;;;;;;5073961;28;20025;-48
2021/08/25 04:08:32;;;;;;;2.95;2.35;;;23.70;57.40;;;;;;5074953;28;20163;-47
2021/08/25 04:10:58;;;;;;;3.53;2.75;;;23.70;57.40;;;;;;5056321;28;20600;-48
2021/08/25 04:13:23;;;;;;;3.80;2.90;;;23.70;57.40;;;;;;5054936;28;20466;-49
2021/08/25 04:15:49;;;;;;;4.25;2.92;;;23.70;57.30;;;;;;5054130;28;20029;-48
2021/08/25 04:18:15;;;;;;;4.13;2.72;;;23.70;57.40;;;;;;5054508;28;20047;-47
2021/08/25 04:20:40;;;;;;;3.20;2.65;;;23.70;57.30;;;;;;5053707;28;20124;-51
2021/08/25 04:23:06;;;;;;;3.10;2.63;;;23.70;57.30;;;;;;5054442;28;20106;-48
2021/08/25 04:25:32;;;;;;;4.10;2.88;;;23.70;57.30;;;;;;5054642;28;20028;-47
2021/08/25 04:27:57;;;;;;;3.53;2.40;;;23.70;57.30;;;;;;5052847;28;20020;-48
2021/08/25 04:30:23;;;;;;;2.33;2.10;;;23.70;57.30;;;;;;5054212;28;20031;-49
2021/08/25 04:32:49;;;;;;;3.40;2.55;;;23.70;57.30;;;;;;5053838;28;20044;-48
2021/08/25 04:35:14;;;;;;;4.55;2.75;;;23.70;57.30;;;;;;5071292;28;20079;-47
2021/08/25 04:37:40;;;;;;;4.07;2.67;;;23.70;57.30;;;;;;5073485;28;20024;-54
2021/08/25 04:40:06;;;;;;;4.22;3.00;;;23.70;57.30;;;;;;5074185;28;20104;-48
2021/08/25 04:42:32;;;;;;;3.42;2.70;;;23.70;57.20;;;;;;5074445;28;20020;-49
2021/08/25 04:44:58;;;;;;;2.67;2.40;;;23.70;57.30;;;;;;5060260;28;20289;-47
2021/08/25 04:47:23;;;;;;;2.40;2.20;;;23.70;57.30;;;;;;5054470;28;20031;-51
2021/08/25 04:49:49;;;;;;;3.45;3.03;;;23.70;57.30;;;;;;5052784;28;20111;-53
2021/08/25 04:52:15;;;;;;;3.95;2.60;;;23.70;57.20;;;;;;5074217;28;20032;-48
2021/08/25 04:54:41;;;;;;;4.68;3.20;;;23.70;57.30;;;;;;5073395;28;20118;-54
2021/08/25 04:57:06;;;;;;;3.45;2.95;;;23.70;57.20;;;;;;5074051;28;20031;-47
2021/08/25 04:59:32;;;;;;;2.88;2.55;;;23.70;57.20;;;;;;5073523;28;20037;-47
2021/08/25 05:01:57;;;;;;;2.90;2.40;;;23.70;57.20;;;;;;5073046;28;20067;-47
2021/08/25 05:04:23;;;;;;;3.25;2.55;;;23.70;57.20;;;;;;5072749;28;20067;-52
2021/08/25 05:06:49;;;;;;;4.18;2.50;;;23.70;57.20;;;;;;5072882;28;20031;-49
2021/08/25 05:09:14;;;;;;;3.42;2.90;;;23.70;57.30;;;;;;5070535;28;20032;-47
2021/08/25 05:11:40;;;;;;;4.68;2.63;;;23.70;57.30;;;;;;5052272;28;20078;-54
2021/08/25 05:14:06;;;;;;;3.22;2.70;;;23.70;57.30;;;;;;5053150;28;20020;-49
2021/08/25 05:16:31;;;;;;;3.33;2.83;;;23.70;57.30;;;;;;5053663;28;20443;-49
2021/08/25 05:18:57;;;;;;;4.40;3.28;;;23.60;57.10;;;;;;5052510;28;20032;-51
2021/08/25 05:21:23;;;;;;;3.45;2.85;;;23.60;57.20;;;;;;5053196;28;20033;-48
2021/08/25 05:23:49;;;;;;;5.47;2.90;;;23.70;57.20;;;;;;5052348;28;20116;-50
2021/08/25 05:26:15;;;;;;;4.53;2.60;;;23.70;57.20;;;;;;5051627;28;20116;-48
2021/08/25 05:28:40;;;;;;;4.43;3.03;;;23.60;57.10;;;;;;5059319;28;20020;-49
2021/08/25 05:31:06;;;;;;;3.05;2.75;;;23.70;57.20;;;;;;5073146;28;20063;-48
2021/08/25 05:33:32;;;;;;;3.42;2.67;;;23.70;57.20;;;;;;5073618;28;20103;-50
2021/08/25 05:35:59;;;;;;;5.05;2.58;;;23.60;57.10;;;;;;5071053;28;20035;-51
2021/08/25 05:38:25;;;;;;;3.45;2.65;;;23.70;57.50;;;;;;5073365;28;20031;-48
2021/08/25 05:40:50;;;;;;;3.88;2.78;;;23.60;57.60;;;;;;5072309;28;20120;-49
2021/08/25 05:43:17;;;;;;;4.88;2.75;;;23.60;57.60;;;;;;5073489;28;20028;-47
2021/08/25 05:45:44;;;;;;;5.25;2.83;;;23.70;58.40;;;;;;5072902;28;20024;-54
2021/08/25 05:48:09;;;;;;;11.52;4.10;;;23.70;57.80;;;;;;5073326;28;20072;-47
2021/08/25 05:50:35;;;;;;;6.13;2.92;;;23.70;57.70;;;;;;5073437;28;20058;-48
2021/08/25 05:53:01;;;;;;;6.75;2.90;;;23.70;57.90;;;;;;5071698;28;20678;-47
2021/08/25 05:55:26;;;;;;;8.52;3.75;;;23.70;58.10;;;;;;5054032;28;20025;-48
2021/08/25 05:57:52;;;;;;;6.45;3.47;;;23.60;57.20;;;;;;5050519;28;20032;-49
2021/08/25 06:00:20;;;;;;;7.20;3.83;;;23.60;57.80;;;;;;5052933;28;20052;-53
2021/08/25 06:02:45;;;;;;;6.38;3.63;;;23.60;58.00;;;;;;5052808;28;20039;-49
2021/08/25 06:05:12;;;;;;;6.72;3.00;;;23.60;58.00;;;;;;5053244;28;20112;-48
2021/08/25 06:07:39;;;;;;;7.45;3.60;;;23.70;58.00;;;;;;5052924;28;20501;-49
2021/08/25 06:10:05;;;;;;;4.68;3.40;;;23.70;58.00;;;;;;5052396;28;20083;-49
2021/08/25 06:12:31;;;;;;;8.50;3.92;;;23.80;58.00;;;;;;5053014;28;20484;-54
2021/08/25 06:14:57;;;;;;;10.85;3.67;;;23.80;57.90;;;;;;5052500;28;20108;-53
2021/08/25 06:17:23;;;;;;;8.85;3.58;;;23.80;57.80;;;;;;5052815;28;20025;-49
2021/08/25 06:19:48;;;;;;;12.13;4.03;;;23.70;58.00;;;;;;5051997;28;20167;-48
2021/08/25 06:22:14;;;;;;;7.80;4.07;;;23.70;58.20;;;;;;5052147;28;20036;-49
2021/08/25 06:24:39;;;;;;;7.95;3.30;;;23.70;58.20;;;;;;5058754;28;20114;-49
2021/08/25 06:27:05;;;;;;;9.82;3.75;;;23.70;58.20;;;;;;5071395;28;20071;-48
2021/08/25 06:29:31;;;;;;;7.60;3.22;;;23.60;58.10;;;;;;5058415;28;20477;-48
2021/08/25 06:31:57;;;;;;;8.25;3.35;;;23.70;58.30;;;;;;5052132;28;20036;-48
2021/08/25 06:34:23;;;;;;;9.25;3.55;;;23.60;58.80;;;;;;5052315;28;20112;-50
2021/08/25 06:36:48;;;;;;;16.45;3.80;;;23.60;58.20;;;;;;5047238;28;20529;-52
2021/08/25 06:39:14;;;;;;;8.75;3.47;;;23.60;58.40;;;;;;5051985;28;20036;-48
2021/08/25 06:41:41;;;;;;;8.50;3.78;;;23.60;58.50;;;;;;5053545;28;20485;-50
2021/08/25 06:44:08;;;;;;;7.97;3.35;;;23.60;58.60;;;;;;5052248;28;20031;-48
2021/08/25 06:46:38;;;;;;;8.07;3.30;;;23.60;58.40;;;;;;5051992;28;20029;-48
2021/08/25 06:49:05;;;;;;;8.43;3.63;;;23.70;58.30;;;;;;5051950;28;20029;-47
2021/08/25 06:51:33;;;;;;;6.40;3.95;;;23.70;58.30;;;;;;5057935;28;20027;-47
2021/08/25 06:54:00;;;;;;;9.80;3.75;;;23.70;58.10;;;;;;5071632;28;20115;-48
2021/08/25 06:56:27;;;;;;;6.22;3.95;;;23.80;58.10;;;;;;5072037;28;20024;-49
2021/08/25 06:58:56;;;;;;;11.57;3.60;;;23.80;58.20;;;;;;5071175;28;20032;-49
2021/08/25 07:01:23;;;;;;;7.53;3.25;;;23.80;58.00;;;;;;5072266;28;20033;-48
2021/08/25 07:03:53;;;;;;;6.63;3.08;;;23.90;58.00;;;;;;5072035;28;20402;-48
2021/08/25 07:06:19;;;;;;;6.78;3.20;;;23.80;57.80;;;;;;5072021;28;20451;-47
2021/08/25 07:08:46;;;;;;;5.93;3.22;;;23.90;57.90;;;;;;5050998;28;20087;-48
2021/08/25 07:11:14;;;;;;;4.20;3.00;;;23.90;57.80;;;;;;5051430;28;20485;-47
2021/08/25 07:13:41;;;;;;;7.13;3.40;;;23.90;57.80;;;;;;5051672;28;20021;-48
2021/08/25 07:16:10;;;;;;;5.00;3.53;;;23.90;58.00;;;;;;5051435;28;20025;-49
2021/08/25 07:18:37;;;;;;;4.05;2.85;;;23.90;57.80;;;;;;5052062;28;20377;-50
2021/08/25 07:21:04;;;;;;;4.15;3.03;;;23.90;58.00;;;;;;5051308;28;20272;-48
2021/08/25 07:23:35;;;;;;;6.00;2.88;;;23.90;57.80;;;;;;5051843;28;20041;-49
2021/08/25 07:26:02;;;;;;;8.50;3.30;;;23.90;57.70;;;;;;5069569;28;20497;-47
2021/08/25 07:28:28;;;;;;;4.40;2.50;;;23.90;57.40;;;;;;5056293;28;20072;-48
2021/08/25 07:30:56;;;;;;;7.32;3.63;;;23.90;57.30;;;;;;5051501;28;20033;-47
2021/08/25 07:33:23;;;;;;;3.25;2.90;;;23.90;57.50;;;;;;5053086;28;20029;-47
2021/08/25 07:35:50;;;;;;;4.35;3.15;;;23.90;57.30;;;;;;5055425;28;20029;-47
2021/08/25 07:38:17;;;;;;;4.32;3.35;;;23.90;57.30;;;;;;5054463;28;20386;-47
2021/08/25 07:40:46;;;;;;;5.07;2.83;;;23.90;57.30;;;;;;5055535;28;20029;-55
2021/08/25 07:43:12;;;;;;;3.72;2.80;;;24.00;57.20;;;;;;5055910;28;20040;-47
2021/08/25 07:45:38;;;;;;;4.47;2.78;;;24.00;57.30;;;;;;5055463;28;20033;-47
2021/08/25 07:48:05;;;;;;;3.30;2.58;;;23.90;57.10;;;;;;5055276;28;20033;-47
2021/08/25 07:50:30;;;;;;;5.72;2.60;;;24.00;57.20;;;;;;5055827;28;20040;-47
2021/08/25 07:52:56;;;;;;;5.40;2.70;;;24.00;57.20;;;;;;5054940;28;20025;-48
2021/08/25 07:55:22;;;;;;;5.63;2.95;;;24.00;57.10;;;;;;5068635;28;20029;-48
2021/08/25 07:57:47;;;;;;;4.00;2.78;;;24.00;57.20;;;;;;5074991;28;20028;-47
2021/08/25 08:00:13;;;;;;;4.03;2.78;;;24.00;57.20;;;;;;5074822;28;20045;-46
2021/08/25 08:02:39;;;;;;;3.67;2.78;;;24.00;57.20;;;;;;5075981;28;20503;-46
2021/08/25 08:05:05;;;;;;;3.20;2.60;;;24.00;57.10;;;;;;5074989;28;20039;-47
2021/08/25 08:07:31;;;;;;;5.05;3.00;;;23.90;57.20;;;;;;5067178;28;20017;-47
2021/08/25 08:09:56;;;;;;;3.90;2.80;;;24.00;57.20;;;;;;5054818;28;20071;-47
2021/08/25 08:12:22;;;;;;;4.38;3.17;;;24.00;57.20;;;;;;5055347;28;20530;-47
2021/08/25 08:14:48;;;;;;;5.18;2.80;;;24.00;57.10;;;;;;5054698;28;20108;-49
2021/08/25 08:17:15;;;;;;;4.80;2.80;;;24.00;57.00;;;;;;5055240;28;20029;-47
2021/08/25 08:19:41;;;;;;;3.85;2.88;;;24.00;57.00;;;;;;5055300;28;20377;-47
2021/08/25 08:22:07;;;;;;;4.18;2.83;;;24.00;57.10;;;;;;5054293;28;20029;-47
2021/08/25 08:24:32;;;;;;;4.45;3.42;;;24.00;57.00;;;;;;5061351;28;20067;-47
2021/08/25 08:26:58;;;;;;;3.92;2.65;;;24.00;57.20;;;;;;5074528;28;20466;-48
2021/08/25 08:29:25;;;;;;;4.30;2.63;;;24.00;56.80;;;;;;5074850;28;20082;-47
2021/08/25 08:31:50;;;;;;;3.92;2.70;;;24.00;56.90;;;;;;5074277;28;20036;-46
2021/08/25 08:34:16;;;;;;;4.38;2.45;;;24.00;56.80;;;;;;5075499;28;20379;-46
2021/08/25 08:36:42;;;;;;;3.20;2.78;;;23.90;56.80;;;;;;5073117;28;20024;-47
2021/08/25 08:39:07;;;;;;;4.28;3.28;;;24.00;56.80;;;;;;5054283;28;20063;-47
2021/08/25 08:41:33;;;;;;;4.55;2.53;;;24.00;56.80;;;;;;5054822;28;20033;-47
2021/08/25 08:43:59;;;;;;;4.10;2.75;;;24.00;56.60;;;;;;5054182;28;20079;-48
2021/08/25 08:46:25;;;;;;;4.28;2.83;;;24.00;56.60;;;;;;5053851;28;20025;-47
2021/08/25 08:48:52;;;;;;;4.40;3.05;;;24.00;56.70;;;;;;5054165;28;20021;-47
2021/08/25 08:51:24;;;;;;;3.22;2.60;;;24.00;56.40;;;;;;5054783;28;20021;-49
2021/08/25 08:53:51;;;;;;;2.75;2.17;;;24.00;56.40;;;;;;5054254;28;20032;-47
2021/08/25 08:56:18;;;;;;;5.63;2.90;;;24.00;56.40;;;;;;5074513;28;20032;-47
2021/08/25 08:58:44;;;;;;;3.90;2.80;;;24.00;56.20;;;;;;5074366;28;20078;-47
2021/08/25 09:01:10;;;;;;;3.45;2.72;;;24.00;56.30;;;;;;5073381;28;20394;-47
2021/08/25 09:03:38;;;;;;;3.53;2.60;;;24.00;56.20;;;;;;5074518;28;20028;-47
2021/08/25 09:06:05;;;;;;;3.25;2.75;;;24.00;56.30;;;;;;5073695;28;20021;-48
2021/08/25 09:08:33;;;;;;;3.88;2.35;;;24.00;56.20;;;;;;5057845;28;20031;-46
2021/08/25 09:11:08;;;;;;;3.83;2.53;;;24.00;56.10;;;;;;5053445;28;20036;-47
2021/08/25 09:13:40;;;;;;;3.38;2.35;;;24.00;56.00;;;;;;5054343;28;20021;-48
2021/08/25 09:16:07;;;;;;;2.90;2.58;;;24.00;56.00;;;;;;5053628;28;20032;-50
2021/08/25 09:18:33;;;;;;;2.85;2.40;;;24.00;56.00;;;;;;5053781;28;20029;-49
2021/08/25 09:20:59;;;;;;;3.15;2.58;;;24.00;56.20;;;;;;5053512;28;20028;-47
2021/08/25 09:23:27;;;;;;;5.10;2.88;;;24.00;56.20;;;;;;5054174;28;20040;-49
2021/08/25 09:26:06;;;;;;;3.33;2.70;;;24.00;55.90;;;;;;5070396;28;20070;-49
2021/08/25 09:28:37;;;;;;;3.88;2.42;;;24.00;56.20;;;;;;5073602;28;20107;-48
2021/08/25 09:31:11;;;;;;;4.63;2.60;;;24.00;56.30;;;;;;5072433;28;20036;-47
2021/08/25 09:33:43;;;;;;;3.63;2.60;;;24.00;56.20;;;;;;5073365;28;20024;-49
2021/08/25 09:36:14;;;;;;;4.95;3.33;;;24.00;56.30;;;;;;5072718;28;20032;-47
2021/08/25 09:38:50;;;;;;;4.47;3.27;;;23.90;56.50;;;;;;5055747;28;20109;-47
2021/08/25 09:41:16;;;;;;;6.25;2.80;;;23.90;56.60;;;;;;5052763;28;20481;-47
2021/08/25 09:43:47;;;;;;;8.13;3.28;;;23.90;56.40;;;;;;5052995;28;20033;-48
2021/08/25 09:46:26;;;;;;;8.77;4.20;;;23.90;56.30;;;;;;5052228;28;20496;-48
2021/08/25 09:48:55;;;;;;;5.70;2.90;;;23.90;56.10;;;;;;5052350;28;20020;-55
2021/08/25 09:51:26;;;;;;;7.07;3.00;;;23.90;56.20;;;;;;5053163;28;20040;-49
2021/08/25 09:54:04;;;;;;;6.82;2.65;;;23.90;56.40;;;;;;5053090;28;20018;-54
2021/08/25 09:56:33;;;;;;;5.35;2.45;;;24.00;56.40;;;;;;5072858;28;20086;-48
2021/08/25 09:59:01;;;;;;;4.18;2.80;;;24.00;57.00;;;;;;5071847;28;20039;-47
2021/08/25 10:01:27;;;;;;;3.40;2.40;;;24.00;56.30;;;;;;5072857;28;20035;-51
2021/08/25 10:03:53;;;;;;;4.32;2.80;;;24.00;56.40;;;;;;5072188;28;20177;-54
2021/08/25 10:06:21;;;;;;;3.75;2.78;;;24.00;56.50;;;;;;5072655;28;20032;-49
2021/08/25 10:08:47;;;;;;;3.60;2.45;;;24.00;56.30;;;;;;5053887;28;20036;-48
2021/08/25 10:11:14;;;;;;;4.13;2.80;;;24.00;56.40;;;;;;5052108;28;20024;-48
2021/08/25 10:13:40;;;;;;;9.48;2.90;;;24.00;56.50;;;;;;5052700;28;20029;-47
2021/08/25 10:16:30;;;;;;;6.05;2.90;;;24.00;56.10;;;;;;5051934;28;20419;-48
2021/08/25 10:19:23;;;;;;;6.55;2.75;;;24.00;56.10;;;;;;5047583;28;20040;-48
2021/08/25 10:21:49;;;;;;;3.30;2.50;;;24.00;56.40;;;;;;5051546;28;20116;-48
2021/08/25 10:24:15;;;;;;;3.58;2.20;;;24.00;56.20;;;;;;5048305;28;20054;-49
2021/08/25 10:26:58;;;;;;;3.55;2.65;;;24.00;56.10;;;;;;5051738;28;20021;-47
2021/08/25 10:29:29;;;;;;;3.83;2.38;;;24.00;56.20;;;;;;5052191;28;20100;-47
2021/08/25 10:31:57;;;;;;;6.32;2.92;;;23.90;56.20;;;;;;5051609;28;20029;-56
2021/08/25 10:34:27;;;;;;;4.22;2.88;;;24.00;56.30;;;;;;5052095;28;20025;-47
2021/08/25 10:37:11;;;;;;;3.50;2.63;;;23.90;56.40;;;;;;5051573;28;20092;-56
2021/08/25 10:39:40;;;;;;;5.38;3.38;;;23.90;56.30;;;;;;5052221;28;20032;-48
2021/08/25 10:42:07;;;;;;;5.53;3.05;;;23.90;56.10;;;;;;5051422;28;20036;-49
2021/08/25 10:44:39;;;;;;;3.30;2.80;;;23.90;56.20;;;;;;5051969;28;20478;-49
2021/08/25 10:47:08;;;;;;;5.65;2.55;;;23.90;55.60;;;;;;5051427;28;20421;-48
2021/08/25 10:49:39;;;;;;;5.68;2.58;;;23.90;55.70;;;;;;5051790;28;20029;-49
2021/08/25 10:52:13;;;;;;;3.90;2.55;;;23.90;55.50;;;;;;5057625;28;20112;-48
2021/08/25 10:54:40;;;;;;;3.10;2.40;;;23.90;55.40;;;;;;5071683;28;20029;-48
2021/08/25 10:57:11;;;;;;;3.55;2.45;;;23.90;55.20;;;;;;5070989;28;20033;-47
2021/08/25 10:59:37;;;;;;;4.47;2.85;;;23.90;55.40;;;;;;5071680;28;20051;-49
2021/08/25 11:02:03;;;;;;;4.70;3.10;;;23.90;55.00;;;;;;5070893;28;20036;-48
2021/08/25 11:04:30;;;;;;;4.45;2.83;;;23.90;55.20;;;;;;5071541;28;20485;-47
2021/08/25 11:07:09;;;;;;;3.55;2.53;;;23.90;54.90;;;;;;5068037;28;20033;-54
2021/08/25 11:09:37;;;;;;;3.13;2.45;;;23.90;54.80;;;;;;5048290;28;20025;-48
2021/08/25 11:12:14;;;;;;;4.32;3.22;;;23.90;54.90;;;;;;5051059;28;20021;-49
2021/08/25 11:14:49;;;;;;;3.92;2.90;;;23.90;54.80;;;;;;5051649;28;20116;-48
2021/08/25 11:17:15;;;;;;;4.00;2.70;;;23.90;54.70;;;;;;5051141;28;20033;-48
2021/08/25 11:19:46;;;;;;;4.32;2.83;;;23.90;54.70;;;;;;5051585;28;20025;-50
2021/08/25 11:22:17;;;;;;;4.13;2.45;;;23.90;54.70;;;;;;5050991;28;20029;-49
2021/08/25 11:24:46;;;;;;;3.95;3.00;;;23.90;54.90;;;;;;5053263;28;20109;-50
2021/08/25 11:27:24;;;;;;;4.22;2.60;;;23.90;55.10;;;;;;5050868;28;20518;-48
2021/08/25 11:30:10;;;;;;;3.63;2.42;;;23.90;55.10;;;;;;5051961;28;20143;-49
2021/08/25 11:32:59;;;;;;;4.50;2.80;;;23.90;55.00;;;;;;5054407;28;20041;-49
2021/08/25 11:35:45;;;;;;;3.30;2.67;;;23.90;55.10;;;;;;5071463;28;20044;-51
2021/08/25 11:38:15;;;;;;;3.50;2.45;;;23.90;55.70;;;;;;5057043;28;20082;-47
2021/08/25 11:40:42;;;;;;;5.00;2.80;;;23.90;55.40;;;;;;5061462;28;20167;-47
2021/08/25 11:43:14;;;;;;;4.63;2.78;;;23.90;55.30;;;;;;5070795;28;20052;-47
2021/08/25 11:45:41;;;;;;;3.63;2.63;;;23.90;55.20;;;;;;5071312;28;20037;-49
2021/08/25 11:48:08;;;;;;;3.22;2.38;;;23.90;55.30;;;;;;5069569;28;20082;-48
2021/08/25 11:50:40;;;;;;;4.97;2.47;;;23.90;55.40;;;;;;5071416;28;20029;-47
2021/08/25 11:53:16;;;;;;;;;;;23.90;55.40;;;;;;5071293;28;20021;-48
2021/08/25 11:55:43;;;;;;;3.63;2.55;;;23.90;55.50;;;;;;5070551;28;19927;-52
2021/08/25 11:58:29;;;;;;;4.22;2.58;;;23.90;55.30;;;;;;5050608;28;20033;-48
2021/08/25 12:00:56;;;;;;;4.20;2.35;;;23.90;55.40;;;;;;5051014;28;20390;-54
2021/08/25 12:03:43;;;;;;;3.95;2.47;;;23.90;55.20;;;;;;5051048;28;20021;-48
2021/08/25 12:06:13;;;;;;;2.72;2.20;;;23.90;55.00;;;;;;5050505;28;20036;-47
2021/08/25 12:08:43;;;;;;;2.50;2.15;;;23.90;54.90;;;;;;5050991;28;20482;-48
2021/08/25 12:11:11;;;;;;;4.00;2.53;;;23.90;54.80;;;;;;5049241;28;20497;-47
2021/08/25 12:13:44;;;;;;;3.92;2.70;;;23.90;54.70;;;;;;5051450;28;20144;-48
2021/08/25 12:16:24;;;;;;;3.58;2.90;;;23.90;54.60;;;;;;5053029;28;20019;-48
2021/08/25 12:18:55;;;;;;;3.15;2.60;;;23.90;54.70;;;;;;5071032;28;20470;-49
2021/08/25 12:21:26;;;;;;;4.00;2.60;;;23.90;54.50;;;;;;5073266;28;20127;-50
2021/08/25 12:23:58;;;;;;;3.72;2.63;;;23.90;54.60;;;;;;5075339;28;20112;-47
2021/08/25 12:26:27;;;;;;;4.78;2.63;;;23.90;54.70;;;;;;5073733;28;20048;-47
2021/08/25 12:28:52;;;;;;;4.03;2.58;;;23.90;54.60;;;;;;5070189;28;20027;-48
2021/08/25 12:31:27;;;;;;;3.05;2.40;;;23.90;54.60;;;;;;5053836;28;20025;-47
2021/08/25 12:34:10;;;;;;;4.18;2.80;;;23.90;54.70;;;;;;5054701;28;20348;-48
2021/08/25 12:36:38;;;;;;;4.80;2.55;;;23.90;54.20;;;;;;5054246;28;20032;-53
2021/08/25 12:39:09;;;;;;;4.05;3.00;;;23.90;54.20;;;;;;5053619;28;20405;-48
2021/08/25 12:41:40;;;;;;;4.33;2.60;;;23.90;54.00;;;;;;5054600;28;20170;-48
2021/08/25 12:44:07;;;;;;;3.85;2.70;;;24.00;54.00;;;;;;5052273;28;20609;-48
2021/08/25 12:46:47;;;;;;;4.88;3.00;;;24.00;53.70;;;;;;5053368;28;20378;-48
2021/08/25 12:49:13;;;;;;;5.03;2.85;;;24.00;53.60;;;;;;5053240;28;20024;-50
2021/08/25 12:51:39;;;;;;;3.58;2.95;;;24.00;53.50;;;;;;5053857;28;20367;-47